sensor_id;sensor_type;location;lat;lon;timestamp;P1;durP1;ratioP1;P2;durP2;ratioP2
21677;SDS011;11000;50.360;7.582;2023-04-24T00:01:16;1.37;;;0.87;;
21677;SDS011;11000;50.360;7.582;2023-04-24T00:03:37;2.10;;;0.80;;
21677;SDS011;11000;50.360;7.582;2023-04-24T00:05:58;2.20;;;1.00;;
21677;SDS011;11000;50.360;7.582;2023-04-24T00:08:20;1.67;;;0.70;;
21677;SDS011;11000;50.360;7.582;2023-04-24T00:10:42;3.30;;;0.93;;
21677;SDS011;11000;50.360;7.582;2023-04-24T00:13:03;1.40;;;0.63;;
21677;SDS011;11000;50.360;7.582;2023-04-24T00:15:23;1.53;;;0.60;;
21677;SDS011;11000;50.360;7.582;2023-04-24T00:17:44;0.93;;;0.80;;
21677;SDS011;11000;50.360;7.582;2023-04-24T00:20:05;1.60;;;0.63;;
21677;SDS011;11000;50.360;7.582;2023-04-24T00:22:27;1.20;;;0.57;;
21677;SDS011;11000;50.360;7.582;2023-04-24T00:24:48;2.00;;;0.60;;
21677;SDS011;11000;50.360;7.582;2023-04-24T00:27:08;0.93;;;0.43;;
21677;SDS011;11000;50.360;7.582;2023-04-24T00:29:29;1.53;;;0.53;;
21677;SDS011;11000;50.360;7.582;2023-04-24T00:31:50;1.90;;;0.60;;
21677;SDS011;11000;50.360;7.582;2023-04-24T00:34:10;0.40;;;0.40;;
21677;SDS011;11000;50.360;7.582;2023-04-24T00:36:31;0.67;;;0.40;;
21677;SDS011;11000;50.360;7.582;2023-04-24T00:38:52;0.77;;;0.20;;
21677;SDS011;11000;50.360;7.582;2023-04-24T00:41:13;0.10;;;0.10;;
21677;SDS011;11000;50.360;7.582;2023-04-24T00:43:34;0.83;;;0.20;;
21677;SDS011;11000;50.360;7.582;2023-04-24T00:45:54;0.40;;;0.20;;
21677;SDS011;11000;50.360;7.582;2023-04-24T00:48:15;0.10;;;0.10;;
21677;SDS011;11000;50.360;7.582;2023-04-24T00:50:36;0.33;;;0.20;;
21677;SDS011;11000;50.360;7.582;2023-04-24T00:52:58;1.77;;;0.30;;
21677;SDS011;11000;50.360;7.582;2023-04-24T00:55:18;0.30;;;0.20;;
21677;SDS011;11000;50.360;7.582;2023-04-24T00:57:39;0.97;;;0.20;;
21677;SDS011;11000;50.360;7.582;2023-04-24T01:00:00;0.90;;;0.10;;
21677;SDS011;11000;50.360;7.582;2023-04-24T01:02:20;0.20;;;0.20;;
21677;SDS011;11000;50.360;7.582;2023-04-24T01:04:42;0.27;;;0.23;;
21677;SDS011;11000;50.360;7.582;2023-04-24T01:07:03;0.83;;;0.27;;
21677;SDS011;11000;50.360;7.582;2023-04-24T01:09:29;0.20;;;0.17;;
21677;SDS011;11000;50.360;7.582;2023-04-24T01:11:50;1.00;;;0.30;;
21677;SDS011;11000;50.360;7.582;2023-04-24T01:14:11;0.23;;;0.20;;
21677;SDS011;11000;50.360;7.582;2023-04-24T01:16:31;2.10;;;0.30;;
21677;SDS011;11000;50.360;7.582;2023-04-24T01:18:52;0.40;;;0.30;;
21677;SDS011;11000;50.360;7.582;2023-04-24T01:21:13;0.53;;;0.23;;
21677;SDS011;11000;50.360;7.582;2023-04-24T01:23:36;1.17;;;0.40;;
21677;SDS011;11000;50.360;7.582;2023-04-24T01:25:56;0.37;;;0.30;;
21677;SDS011;11000;50.360;7.582;2023-04-24T01:28:17;1.03;;;0.40;;
21677;SDS011;11000;50.360;7.582;2023-04-24T01:30:38;0.20;;;0.20;;
21677;SDS011;11000;50.360;7.582;2023-04-24T01:32:58;1.07;;;0.20;;
21677;SDS011;11000;50.360;7.582;2023-04-24T01:35:19;0.20;;;0.20;;
21677;SDS011;11000;50.360;7.582;2023-04-24T01:37:40;0.40;;;0.30;;
21677;SDS011;11000;50.360;7.582;2023-04-24T01:40:00;0.30;;;0.30;;
21677;SDS011;11000;50.360;7.582;2023-04-24T01:42:21;0.93;;;0.33;;
21677;SDS011;11000;50.360;7.582;2023-04-24T01:44:42;0.37;;;0.20;;
21677;SDS011;11000;50.360;7.582;2023-04-24T01:47:03;0.43;;;0.43;;
21677;SDS011;11000;50.360;7.582;2023-04-24T01:49:24;1.20;;;0.40;;
21677;SDS011;11000;50.360;7.582;2023-04-24T01:51:44;0.37;;;0.30;;
21677;SDS011;11000;50.360;7.582;2023-04-24T01:54:05;1.93;;;0.30;;
21677;SDS011;11000;50.360;7.582;2023-04-24T01:56:25;0.40;;;0.40;;
21677;SDS011;11000;50.360;7.582;2023-04-24T01:58:50;0.60;;;0.40;;
21677;SDS011;11000;50.360;7.582;2023-04-24T02:01:19;0.30;;;0.30;;
21677;SDS011;11000;50.360;7.582;2023-04-24T02:03:40;0.80;;;0.60;;
21677;SDS011;11000;50.360;7.582;2023-04-24T02:06:00;0.97;;;0.73;;
21677;SDS011;11000;50.360;7.582;2023-04-24T02:08:21;0.97;;;0.60;;
21677;SDS011;11000;50.360;7.582;2023-04-24T02:10:41;0.50;;;0.50;;
21677;SDS011;11000;50.360;7.582;2023-04-24T02:13:02;0.77;;;0.70;;
21677;SDS011;11000;50.360;7.582;2023-04-24T02:15:24;1.13;;;0.60;;
21677;SDS011;11000;50.360;7.582;2023-04-24T02:17:46;2.40;;;0.73;;
21677;SDS011;11000;50.360;7.582;2023-04-24T02:20:06;1.43;;;0.43;;
21677;SDS011;11000;50.360;7.582;2023-04-24T02:22:27;0.70;;;0.70;;
21677;SDS011;11000;50.360;7.582;2023-04-24T02:24:48;1.67;;;0.70;;
21677;SDS011;11000;50.360;7.582;2023-04-24T02:27:08;3.00;;;0.83;;
21677;SDS011;11000;50.360;7.582;2023-04-24T02:29:29;0.80;;;0.80;;
21677;SDS011;11000;50.360;7.582;2023-04-24T02:31:50;3.10;;;0.60;;
21677;SDS011;11000;50.360;7.582;2023-04-24T02:34:11;1.20;;;0.63;;
21677;SDS011;11000;50.360;7.582;2023-04-24T02:36:31;0.80;;;0.77;;
21677;SDS011;11000;50.360;7.582;2023-04-24T02:38:51;0.80;;;0.80;;
21677;SDS011;11000;50.360;7.582;2023-04-24T02:41:12;1.73;;;0.80;;
21677;SDS011;11000;50.360;7.582;2023-04-24T02:43:32;1.03;;;0.70;;
21677;SDS011;11000;50.360;7.582;2023-04-24T02:45:53;1.23;;;0.80;;
21677;SDS011;11000;50.360;7.582;2023-04-24T02:48:14;0.60;;;0.60;;
21677;SDS011;11000;50.360;7.582;2023-04-24T02:50:35;1.30;;;0.73;;
21677;SDS011;11000;50.360;7.582;2023-04-24T02:52:55;1.23;;;0.80;;
21677;SDS011;11000;50.360;7.582;2023-04-24T02:55:15;1.70;;;0.93;;
21677;SDS011;11000;50.360;7.582;2023-04-24T02:57:36;0.83;;;0.80;;
21677;SDS011;11000;50.360;7.582;2023-04-24T02:59:56;1.00;;;0.93;;
21677;SDS011;11000;50.360;7.582;2023-04-24T03:02:17;1.67;;;0.80;;
21677;SDS011;11000;50.360;7.582;2023-04-24T03:04:37;1.30;;;1.00;;
21677;SDS011;11000;50.360;7.582;2023-04-24T03:06:59;2.30;;;0.93;;
21677;SDS011;11000;50.360;7.582;2023-04-24T03:09:21;0.90;;;0.90;;
21677;SDS011;11000;50.360;7.582;2023-04-24T03:11:41;1.43;;;1.10;;
21677;SDS011;11000;50.360;7.582;2023-04-24T03:14:02;1.60;;;0.87;;
21677;SDS011;11000;50.360;7.582;2023-04-24T03:16:22;2.47;;;1.10;;
21677;SDS011;11000;50.360;7.582;2023-04-24T03:18:43;1.73;;;1.10;;
21677;SDS011;11000;50.360;7.582;2023-04-24T03:21:03;1.20;;;1.10;;
21677;SDS011;11000;50.360;7.582;2023-04-24T03:23:24;1.30;;;1.20;;
21677;SDS011;11000;50.360;7.582;2023-04-24T03:25:44;1.13;;;1.03;;
21677;SDS011;11000;50.360;7.582;2023-04-24T03:28:05;1.27;;;1.17;;
21677;SDS011;11000;50.360;7.582;2023-04-24T03:30:26;1.57;;;1.47;;
21677;SDS011;11000;50.360;7.582;2023-04-24T03:32:46;2.60;;;1.87;;
21677;SDS011;11000;50.360;7.582;2023-04-24T03:35:07;1.97;;;1.70;;
21677;SDS011;11000;50.360;7.582;2023-04-24T03:37:28;4.33;;;1.73;;
21677;SDS011;11000;50.360;7.582;2023-04-24T03:39:49;3.23;;;1.87;;
21677;SDS011;11000;50.360;7.582;2023-04-24T03:42:09;2.43;;;1.80;;
21677;SDS011;11000;50.360;7.582;2023-04-24T03:44:30;2.10;;;1.90;;
21677;SDS011;11000;50.360;7.582;2023-04-24T03:46:50;4.33;;;2.00;;
21677;SDS011;11000;50.360;7.582;2023-04-24T03:49:11;2.57;;;2.37;;
21677;SDS011;11000;50.360;7.582;2023-04-24T03:51:32;3.47;;;2.27;;
21677;SDS011;11000;50.360;7.582;2023-04-24T03:53:52;2.17;;;1.97;;
21677;SDS011;11000;50.360;7.582;2023-04-24T03:56:13;6.23;;;2.30;;
21677;SDS011;11000;50.360;7.582;2023-04-24T03:58:33;3.73;;;1.90;;
21677;SDS011;11000;50.360;7.582;2023-04-24T04:00:54;2.40;;;2.20;;
21677;SDS011;11000;50.360;7.582;2023-04-24T04:03:16;3.37;;;2.87;;
21677;SDS011;11000;50.360;7.582;2023-04-24T04:05:37;2.67;;;2.40;;
21677;SDS011;11000;50.360;7.582;2023-04-24T04:07:57;2.87;;;2.57;;
21677;SDS011;11000;50.360;7.582;2023-04-24T04:10:18;5.17;;;2.60;;
21677;SDS011;11000;50.360;7.582;2023-04-24T04:12:38;3.30;;;2.40;;
21677;SDS011;11000;50.360;7.582;2023-04-24T04:14:59;3.47;;;2.80;;
21677;SDS011;11000;50.360;7.582;2023-04-24T04:17:20;3.47;;;2.83;;
21677;SDS011;11000;50.360;7.582;2023-04-24T04:19:40;3.20;;;2.40;;
21677;SDS011;11000;50.360;7.582;2023-04-24T04:22:01;3.67;;;2.53;;
21677;SDS011;11000;50.360;7.582;2023-04-24T04:24:22;3.90;;;2.60;;
21677;SDS011;11000;50.360;7.582;2023-04-24T04:26:43;3.97;;;2.53;;
21677;SDS011;11000;50.360;7.582;2023-04-24T04:29:06;3.20;;;2.90;;
21677;SDS011;11000;50.360;7.582;2023-04-24T04:31:27;3.57;;;2.40;;
21677;SDS011;11000;50.360;7.582;2023-04-24T04:33:47;3.27;;;1.97;;
21677;SDS011;11000;50.360;7.582;2023-04-24T04:36:08;2.60;;;2.30;;
21677;SDS011;11000;50.360;7.582;2023-04-24T04:38:29;2.83;;;2.10;;
21677;SDS011;11000;50.360;7.582;2023-04-24T04:40:50;2.63;;;2.13;;
21677;SDS011;11000;50.360;7.582;2023-04-24T04:43:11;2.73;;;2.50;;
21677;SDS011;11000;50.360;7.582;2023-04-24T04:45:36;3.17;;;2.50;;
21677;SDS011;11000;50.360;7.582;2023-04-24T04:47:58;2.83;;;2.40;;
21677;SDS011;11000;50.360;7.582;2023-04-24T04:50:20;2.33;;;2.13;;
21677;SDS011;11000;50.360;7.582;2023-04-24T04:52:42;3.83;;;2.30;;
21677;SDS011;11000;50.360;7.582;2023-04-24T04:55:11;3.50;;;2.50;;
21677;SDS011;11000;50.360;7.582;2023-04-24T04:57:33;3.17;;;2.40;;
21677;SDS011;11000;50.360;7.582;2023-04-24T04:59:56;3.20;;;2.77;;
21677;SDS011;11000;50.360;7.582;2023-04-24T05:02:18;2.70;;;2.50;;
21677;SDS011;11000;50.360;7.582;2023-04-24T05:04:39;6.07;;;2.73;;
21677;SDS011;11000;50.360;7.582;2023-04-24T05:07:01;3.07;;;2.80;;
21677;SDS011;11000;50.360;7.582;2023-04-24T05:09:21;3.97;;;2.83;;
21677;SDS011;11000;50.360;7.582;2023-04-24T05:11:42;7.27;;;2.87;;
21677;SDS011;11000;50.360;7.582;2023-04-24T05:14:02;5.00;;;2.97;;
21677;SDS011;11000;50.360;7.582;2023-04-24T05:16:23;5.73;;;3.30;;
21677;SDS011;11000;50.360;7.582;2023-04-24T05:18:44;3.57;;;3.27;;
21677;SDS011;11000;50.360;7.582;2023-04-24T05:21:04;5.70;;;3.53;;
21677;SDS011;11000;50.360;7.582;2023-04-24T05:23:25;3.80;;;3.33;;
21677;SDS011;11000;50.360;7.582;2023-04-24T05:25:45;3.60;;;3.30;;
21677;SDS011;11000;50.360;7.582;2023-04-24T05:28:07;3.13;;;2.83;;
21677;SDS011;11000;50.360;7.582;2023-04-24T05:30:28;4.40;;;2.90;;
21677;SDS011;11000;50.360;7.582;2023-04-24T05:32:50;3.67;;;2.90;;
21677;SDS011;11000;50.360;7.582;2023-04-24T05:35:11;5.03;;;3.47;;
21677;SDS011;11000;50.360;7.582;2023-04-24T05:37:36;4.53;;;3.17;;
21677;SDS011;11000;50.360;7.582;2023-04-24T05:40:00;3.67;;;3.37;;
21677;SDS011;11000;50.360;7.582;2023-04-24T05:42:24;3.73;;;3.03;;
21677;SDS011;11000;50.360;7.582;2023-04-24T05:44:45;4.73;;;3.60;;
21677;SDS011;11000;50.360;7.582;2023-04-24T05:47:07;6.97;;;3.77;;
21677;SDS011;11000;50.360;7.582;2023-04-24T05:49:28;5.53;;;3.67;;
21677;SDS011;11000;50.360;7.582;2023-04-24T05:51:53;4.83;;;3.73;;
21677;SDS011;11000;50.360;7.582;2023-04-24T05:54:14;4.17;;;3.77;;
21677;SDS011;11000;50.360;7.582;2023-04-24T05:56:35;4.10;;;3.70;;
21677;SDS011;11000;50.360;7.582;2023-04-24T05:58:56;6.03;;;4.20;;
21677;SDS011;11000;50.360;7.582;2023-04-24T06:01:16;5.00;;;4.10;;
21677;SDS011;11000;50.360;7.582;2023-04-24T06:03:38;4.67;;;4.03;;
21677;SDS011;11000;50.360;7.582;2023-04-24T06:05:59;5.43;;;4.17;;
21677;SDS011;11000;50.360;7.582;2023-04-24T06:08:20;6.40;;;4.20;;
21677;SDS011;11000;50.360;7.582;2023-04-24T06:10:41;6.50;;;4.13;;
21677;SDS011;11000;50.360;7.582;2023-04-24T06:13:02;4.67;;;4.03;;
21677;SDS011;11000;50.360;7.582;2023-04-24T06:15:22;4.93;;;4.20;;
21677;SDS011;11000;50.360;7.582;2023-04-24T06:17:45;6.77;;;4.60;;
21677;SDS011;11000;50.360;7.582;2023-04-24T06:20:07;4.43;;;4.03;;
21677;SDS011;11000;50.360;7.582;2023-04-24T06:22:31;9.57;;;4.50;;
21677;SDS011;11000;50.360;7.582;2023-04-24T06:24:51;6.57;;;4.50;;
21677;SDS011;11000;50.360;7.582;2023-04-24T06:27:12;6.33;;;4.73;;
21677;SDS011;11000;50.360;7.582;2023-04-24T06:29:33;7.60;;;4.83;;
21677;SDS011;11000;50.360;7.582;2023-04-24T06:31:54;5.97;;;4.40;;
21677;SDS011;11000;50.360;7.582;2023-04-24T06:34:15;5.83;;;4.20;;
21677;SDS011;11000;50.360;7.582;2023-04-24T06:36:36;4.40;;;4.10;;
21677;SDS011;11000;50.360;7.582;2023-04-24T06:38:57;4.10;;;3.60;;
21677;SDS011;11000;50.360;7.582;2023-04-24T06:41:17;5.13;;;4.03;;
21677;SDS011;11000;50.360;7.582;2023-04-24T06:43:40;6.20;;;4.07;;
21677;SDS011;11000;50.360;7.582;2023-04-24T06:46:01;6.07;;;4.03;;
21677;SDS011;11000;50.360;7.582;2023-04-24T06:48:23;4.17;;;3.73;;
21677;SDS011;11000;50.360;7.582;2023-04-24T06:50:45;3.97;;;3.57;;
21677;SDS011;11000;50.360;7.582;2023-04-24T06:53:06;4.17;;;3.83;;
21677;SDS011;11000;50.360;7.582;2023-04-24T06:55:27;4.20;;;3.80;;
21677;SDS011;11000;50.360;7.582;2023-04-24T06:57:48;4.87;;;4.07;;
21677;SDS011;11000;50.360;7.582;2023-04-24T07:00:09;6.17;;;4.17;;
21677;SDS011;11000;50.360;7.582;2023-04-24T07:02:30;4.37;;;3.93;;
21677;SDS011;11000;50.360;7.582;2023-04-24T07:04:51;3.97;;;3.57;;
21677;SDS011;11000;50.360;7.582;2023-04-24T07:07:13;6.50;;;3.80;;
21677;SDS011;11000;50.360;7.582;2023-04-24T07:09:34;5.63;;;3.93;;
21677;SDS011;11000;50.360;7.582;2023-04-24T07:11:58;3.97;;;3.53;;
21677;SDS011;11000;50.360;7.582;2023-04-24T07:14:18;5.80;;;3.53;;
21677;SDS011;11000;50.360;7.582;2023-04-24T07:16:40;6.30;;;3.60;;
21677;SDS011;11000;50.360;7.582;2023-04-24T07:19:01;3.83;;;3.00;;
21677;SDS011;11000;50.360;7.582;2023-04-24T07:21:22;3.60;;;3.30;;
21677;SDS011;11000;50.360;7.582;2023-04-24T07:23:42;6.47;;;3.10;;
21677;SDS011;11000;50.360;7.582;2023-04-24T07:26:03;4.83;;;3.47;;
21677;SDS011;11000;50.360;7.582;2023-04-24T07:28:24;6.37;;;3.60;;
21677;SDS011;11000;50.360;7.582;2023-04-24T07:30:45;5.07;;;3.60;;
21677;SDS011;11000;50.360;7.582;2023-04-24T07:33:05;3.67;;;3.37;;
21677;SDS011;11000;50.360;7.582;2023-04-24T07:35:26;4.33;;;3.03;;
21677;SDS011;11000;50.360;7.582;2023-04-24T07:37:47;3.83;;;3.53;;
21677;SDS011;11000;50.360;7.582;2023-04-24T07:40:08;3.40;;;3.10;;
21677;SDS011;11000;50.360;7.582;2023-04-24T07:42:29;4.37;;;3.60;;
21677;SDS011;11000;50.360;7.582;2023-04-24T07:44:50;3.07;;;2.77;;
21677;SDS011;11000;50.360;7.582;2023-04-24T07:47:11;3.73;;;2.63;;
21677;SDS011;11000;50.360;7.582;2023-04-24T07:49:31;3.40;;;3.10;;
21677;SDS011;11000;50.360;7.582;2023-04-24T07:51:54;4.40;;;2.90;;
21677;SDS011;11000;50.360;7.582;2023-04-24T07:54:15;2.80;;;2.60;;
21677;SDS011;11000;50.360;7.582;2023-04-24T07:56:35;3.90;;;3.00;;
21677;SDS011;11000;50.360;7.582;2023-04-24T07:58:58;5.07;;;2.80;;
21677;SDS011;11000;50.360;7.582;2023-04-24T08:01:19;3.03;;;2.73;;
21677;SDS011;11000;50.360;7.582;2023-04-24T08:03:40;3.07;;;2.40;;
21677;SDS011;11000;50.360;7.582;2023-04-24T08:06:00;2.67;;;1.97;;
21677;SDS011;11000;50.360;7.582;2023-04-24T08:08:21;2.50;;;2.17;;
21677;SDS011;11000;50.360;7.582;2023-04-24T08:10:43;2.83;;;2.30;;
21677;SDS011;11000;50.360;7.582;2023-04-24T08:13:03;2.77;;;2.20;;
21677;SDS011;11000;50.360;7.582;2023-04-24T08:15:24;2.57;;;2.10;;
21677;SDS011;11000;50.360;7.582;2023-04-24T08:17:44;2.63;;;2.17;;
21677;SDS011;11000;50.360;7.582;2023-04-24T08:20:05;2.50;;;2.30;;
21677;SDS011;11000;50.360;7.582;2023-04-24T08:22:30;6.27;;;2.50;;
21677;SDS011;11000;50.360;7.582;2023-04-24T08:24:51;2.53;;;1.97;;
21677;SDS011;11000;50.360;7.582;2023-04-24T08:27:11;2.83;;;2.13;;
21677;SDS011;11000;50.360;7.582;2023-04-24T08:29:32;2.67;;;2.37;;
21677;SDS011;11000;50.360;7.582;2023-04-24T08:31:52;2.60;;;2.40;;
21677;SDS011;11000;50.360;7.582;2023-04-24T08:34:14;2.73;;;2.00;;
21677;SDS011;11000;50.360;7.582;2023-04-24T08:36:35;3.13;;;2.20;;
21677;SDS011;11000;50.360;7.582;2023-04-24T08:38:56;2.30;;;2.10;;
21677;SDS011;11000;50.360;7.582;2023-04-24T08:41:18;3.07;;;2.13;;
21677;SDS011;11000;50.360;7.582;2023-04-24T08:43:39;2.33;;;2.13;;
21677;SDS011;11000;50.360;7.582;2023-04-24T08:46:00;3.47;;;2.13;;
21677;SDS011;11000;50.360;7.582;2023-04-24T08:48:22;2.83;;;1.90;;
21677;SDS011;11000;50.360;7.582;2023-04-24T08:50:45;2.20;;;2.00;;
21677;SDS011;11000;50.360;7.582;2023-04-24T08:53:06;2.60;;;2.00;;
21677;SDS011;11000;50.360;7.582;2023-04-24T08:55:28;2.13;;;1.90;;
21677;SDS011;11000;50.360;7.582;2023-04-24T08:57:50;3.73;;;2.37;;
21677;SDS011;11000;50.360;7.582;2023-04-24T09:00:15;2.20;;;2.00;;
21677;SDS011;11000;50.360;7.582;2023-04-24T09:02:38;2.47;;;1.70;;
21677;SDS011;11000;50.360;7.582;2023-04-24T09:05:03;4.53;;;2.00;;
21677;SDS011;11000;50.360;7.582;2023-04-24T09:07:25;2.60;;;2.00;;
21677;SDS011;11000;50.360;7.582;2023-04-24T09:09:50;4.97;;;1.80;;
21677;SDS011;11000;50.360;7.582;2023-04-24T09:12:11;1.57;;;1.47;;
21677;SDS011;11000;50.360;7.582;2023-04-24T09:14:32;1.50;;;1.40;;
21677;SDS011;11000;50.360;7.582;2023-04-24T09:16:53;1.67;;;1.40;;
21677;SDS011;11000;50.360;7.582;2023-04-24T09:19:13;1.40;;;1.30;;
21677;SDS011;11000;50.360;7.582;2023-04-24T09:21:34;4.20;;;1.80;;
21677;SDS011;11000;50.360;7.582;2023-04-24T09:24:03;2.13;;;1.63;;
21677;SDS011;11000;50.360;7.582;2023-04-24T09:26:25;1.57;;;1.40;;
21677;SDS011;11000;50.360;7.582;2023-04-24T09:28:46;1.60;;;1.50;;
21677;SDS011;11000;50.360;7.582;2023-04-24T09:31:14;1.73;;;1.53;;
21677;SDS011;11000;50.360;7.582;2023-04-24T09:33:38;1.83;;;1.73;;
21677;SDS011;11000;50.360;7.582;2023-04-24T09:35:58;2.23;;;1.50;;
21677;SDS011;11000;50.360;7.582;2023-04-24T09:38:19;1.70;;;1.60;;
21677;SDS011;11000;50.360;7.582;2023-04-24T09:40:54;1.93;;;1.60;;
21677;SDS011;11000;50.360;7.582;2023-04-24T09:43:14;1.73;;;1.33;;
21677;SDS011;11000;50.360;7.582;2023-04-24T09:45:36;1.67;;;1.57;;
21677;SDS011;11000;50.360;7.582;2023-04-24T09:47:57;2.43;;;1.47;;
21677;SDS011;11000;50.360;7.582;2023-04-24T09:50:18;2.20;;;1.50;;
21677;SDS011;11000;50.360;7.582;2023-04-24T09:52:58;1.60;;;1.50;;
21677;SDS011;11000;50.360;7.582;2023-04-24T09:55:21;2.93;;;1.53;;
21677;SDS011;11000;50.360;7.582;2023-04-24T09:57:48;1.70;;;1.60;;
21677;SDS011;11000;50.360;7.582;2023-04-24T10:00:20;1.60;;;1.50;;
21677;SDS011;11000;50.360;7.582;2023-04-24T10:02:41;2.10;;;1.90;;
21677;SDS011;11000;50.360;7.582;2023-04-24T10:05:04;1.63;;;1.53;;
21677;SDS011;11000;50.360;7.582;2023-04-24T10:07:28;1.13;;;1.13;;
21677;SDS011;11000;50.360;7.582;2023-04-24T10:09:48;1.63;;;1.23;;
21677;SDS011;11000;50.360;7.582;2023-04-24T10:12:09;1.30;;;1.20;;
21677;SDS011;11000;50.360;7.582;2023-04-24T10:14:32;1.10;;;0.80;;
21677;SDS011;11000;50.360;7.582;2023-04-24T10:16:53;1.17;;;1.10;;
21677;SDS011;11000;50.360;7.582;2023-04-24T10:19:16;1.03;;;0.93;;
21677;SDS011;11000;50.360;7.582;2023-04-24T10:21:38;1.27;;;0.87;;
21677;SDS011;11000;50.360;7.582;2023-04-24T10:24:02;1.43;;;1.03;;
21677;SDS011;11000;50.360;7.582;2023-04-24T10:26:24;0.90;;;0.90;;
21677;SDS011;11000;50.360;7.582;2023-04-24T10:28:47;0.80;;;0.80;;
21677;SDS011;11000;50.360;7.582;2023-04-24T10:31:08;1.03;;;0.93;;
21677;SDS011;11000;50.360;7.582;2023-04-24T10:33:31;1.50;;;1.40;;
21677;SDS011;11000;50.360;7.582;2023-04-24T10:35:52;2.13;;;1.20;;
21677;SDS011;11000;50.360;7.582;2023-04-24T10:38:13;1.43;;;1.30;;
21677;SDS011;11000;50.360;7.582;2023-04-24T10:40:36;1.27;;;1.17;;
21677;SDS011;11000;50.360;7.582;2023-04-24T10:42:57;1.50;;;1.40;;
21677;SDS011;11000;50.360;7.582;2023-04-24T10:45:19;2.07;;;1.47;;
21677;SDS011;11000;50.360;7.582;2023-04-24T10:47:41;2.97;;;1.73;;
21677;SDS011;11000;50.360;7.582;2023-04-24T10:50:02;2.60;;;1.90;;
21677;SDS011;11000;50.360;7.582;2023-04-24T10:52:43;3.13;;;1.90;;
21677;SDS011;11000;50.360;7.582;2023-04-24T10:55:05;2.53;;;2.30;;
21677;SDS011;11000;50.360;7.582;2023-04-24T10:57:26;2.43;;;2.13;;
21677;SDS011;11000;50.360;7.582;2023-04-24T11:02:38;2.40;;;2.20;;
21677;SDS011;11000;50.360;7.582;2023-04-24T11:05:03;2.83;;;2.20;;
21677;SDS011;11000;50.360;7.582;2023-04-24T11:07:24;4.83;;;2.60;;
21677;SDS011;11000;50.360;7.582;2023-04-24T11:09:46;3.70;;;2.80;;
21677;SDS011;11000;50.360;7.582;2023-04-24T11:12:17;6.97;;;3.50;;
21677;SDS011;11000;50.360;7.582;2023-04-24T11:19:51;6.23;;;3.63;;
21677;SDS011;11000;50.360;7.582;2023-04-24T11:22:14;5.17;;;3.60;;
21677;SDS011;11000;50.360;7.582;2023-04-24T11:24:38;3.50;;;3.20;;
21677;SDS011;11000;50.360;7.582;2023-04-24T11:29:38;5.10;;;3.37;;
21677;SDS011;11000;50.360;7.582;2023-04-24T11:32:14;4.57;;;3.50;;
21677;SDS011;11000;50.360;7.582;2023-04-24T11:34:45;5.90;;;3.93;;
21677;SDS011;11000;50.360;7.582;2023-04-24T11:37:06;4.57;;;4.10;;
21677;SDS011;11000;50.360;7.582;2023-04-24T11:39:27;5.43;;;4.20;;
21677;SDS011;11000;50.360;7.582;2023-04-24T11:41:47;9.80;;;4.20;;
21677;SDS011;11000;50.360;7.582;2023-04-24T11:44:09;5.60;;;4.20;;
21677;SDS011;11000;50.360;7.582;2023-04-24T11:46:31;6.60;;;4.40;;
21677;SDS011;11000;50.360;7.582;2023-04-24T11:48:52;6.20;;;4.80;;
21677;SDS011;11000;50.360;7.582;2023-04-24T11:51:13;4.87;;;4.40;;
21677;SDS011;11000;50.360;7.582;2023-04-24T11:53:34;5.53;;;4.67;;
21677;SDS011;11000;50.360;7.582;2023-04-24T11:55:56;4.97;;;2.97;;
21677;SDS011;11000;50.360;7.582;2023-04-24T11:58:22;4.83;;;3.20;;
21677;SDS011;11000;50.360;7.582;2023-04-24T12:00:43;3.07;;;2.87;;
21677;SDS011;11000;50.360;7.582;2023-04-24T12:03:06;3.20;;;2.80;;
21677;SDS011;11000;50.360;7.582;2023-04-24T12:05:32;3.13;;;2.80;;
21677;SDS011;11000;50.360;7.582;2023-04-24T12:07:53;4.13;;;2.90;;
21677;SDS011;11000;50.360;7.582;2023-04-24T12:10:13;6.13;;;3.47;;
21677;SDS011;11000;50.360;7.582;2023-04-24T12:12:34;5.93;;;2.97;;
21677;SDS011;11000;50.360;7.582;2023-04-24T12:14:56;6.73;;;3.93;;
21677;SDS011;11000;50.360;7.582;2023-04-24T12:17:17;4.87;;;3.23;;
21677;SDS011;11000;50.360;7.582;2023-04-24T12:19:47;9.73;;;4.77;;
21677;SDS011;11000;50.360;7.582;2023-04-24T12:22:09;6.50;;;4.30;;
21677;SDS011;11000;50.360;7.582;2023-04-24T12:24:29;7.17;;;4.77;;
21677;SDS011;11000;50.360;7.582;2023-04-24T12:26:50;4.53;;;3.90;;
21677;SDS011;11000;50.360;7.582;2023-04-24T12:29:11;7.73;;;4.23;;
21677;SDS011;11000;50.360;7.582;2023-04-24T12:31:39;3.73;;;3.33;;
21677;SDS011;11000;50.360;7.582;2023-04-24T12:33:59;5.13;;;3.50;;
21677;SDS011;11000;50.360;7.582;2023-04-24T12:36:20;6.40;;;3.83;;
21677;SDS011;11000;50.360;7.582;2023-04-24T12:38:43;4.90;;;3.87;;
21677;SDS011;11000;50.360;7.582;2023-04-24T12:41:07;5.27;;;4.00;;
21677;SDS011;11000;50.360;7.582;2023-04-24T12:43:29;7.33;;;3.87;;
21677;SDS011;11000;50.360;7.582;2023-04-24T12:45:49;7.37;;;4.20;;
21677;SDS011;11000;50.360;7.582;2023-04-24T12:48:10;8.00;;;4.40;;
21677;SDS011;11000;50.360;7.582;2023-04-24T12:50:31;8.03;;;4.10;;
21677;SDS011;11000;50.360;7.582;2023-04-24T12:52:51;5.03;;;4.13;;
21677;SDS011;11000;50.360;7.582;2023-04-24T12:55:12;6.50;;;3.70;;
21677;SDS011;11000;50.360;7.582;2023-04-24T12:57:33;4.43;;;3.97;;
21677;SDS011;11000;50.360;7.582;2023-04-24T12:59:55;5.23;;;3.80;;
21677;SDS011;11000;50.360;7.582;2023-04-24T13:02:17;7.43;;;4.53;;
21677;SDS011;11000;50.360;7.582;2023-04-24T13:04:38;8.13;;;3.90;;
21677;SDS011;11000;50.360;7.582;2023-04-24T13:06:59;4.40;;;3.60;;
21677;SDS011;11000;50.360;7.582;2023-04-24T13:09:19;6.10;;;4.47;;
21677;SDS011;11000;50.360;7.582;2023-04-24T13:11:40;7.53;;;4.23;;
21677;SDS011;11000;50.360;7.582;2023-04-24T13:14:00;6.27;;;4.27;;
21677;SDS011;11000;50.360;7.582;2023-04-24T13:16:21;5.53;;;3.67;;
21677;SDS011;11000;50.360;7.582;2023-04-24T13:18:43;5.20;;;3.40;;
21677;SDS011;11000;50.360;7.582;2023-04-24T13:21:04;9.53;;;3.90;;
21677;SDS011;11000;50.360;7.582;2023-04-24T13:23:25;7.00;;;4.37;;
21677;SDS011;11000;50.360;7.582;2023-04-24T13:25:48;4.53;;;3.90;;
21677;SDS011;11000;50.360;7.582;2023-04-24T13:28:09;5.53;;;3.37;;
21677;SDS011;11000;50.360;7.582;2023-04-24T13:30:29;6.93;;;3.47;;
21677;SDS011;11000;50.360;7.582;2023-04-24T13:32:51;3.27;;;2.97;;
21677;SDS011;11000;50.360;7.582;2023-04-24T13:35:12;5.20;;;3.03;;
21677;SDS011;11000;50.360;7.582;2023-04-24T13:37:33;4.37;;;2.53;;
21677;SDS011;11000;50.360;7.582;2023-04-24T13:39:54;4.10;;;2.67;;
21677;SDS011;11000;50.360;7.582;2023-04-24T13:42:14;4.37;;;2.80;;
21677;SDS011;11000;50.360;7.582;2023-04-24T13:44:36;4.43;;;3.10;;
21677;SDS011;11000;50.360;7.582;2023-04-24T13:46:57;5.63;;;2.73;;
21677;SDS011;11000;50.360;7.582;2023-04-24T13:49:17;5.73;;;2.80;;
21677;SDS011;11000;50.360;7.582;2023-04-24T13:51:39;4.27;;;3.20;;
21677;SDS011;11000;50.360;7.582;2023-04-24T13:54:00;7.43;;;3.20;;
21677;SDS011;11000;50.360;7.582;2023-04-24T13:56:21;5.50;;;3.10;;
21677;SDS011;11000;50.360;7.582;2023-04-24T13:58:42;4.93;;;2.97;;
21677;SDS011;11000;50.360;7.582;2023-04-24T14:01:03;6.20;;;3.10;;
21677;SDS011;11000;50.360;7.582;2023-04-24T14:03:23;5.57;;;3.33;;
21677;SDS011;11000;50.360;7.582;2023-04-24T14:05:44;4.77;;;3.27;;
21677;SDS011;11000;50.360;7.582;2023-04-24T14:08:05;4.23;;;2.80;;
21677;SDS011;11000;50.360;7.582;2023-04-24T14:10:26;4.80;;;3.33;;
21677;SDS011;11000;50.360;7.582;2023-04-24T14:12:47;5.37;;;2.70;;
21677;SDS011;11000;50.360;7.582;2023-04-24T14:15:08;5.47;;;3.10;;
21677;SDS011;11000;50.360;7.582;2023-04-24T14:17:30;5.80;;;3.30;;
21677;SDS011;11000;50.360;7.582;2023-04-24T14:19:54;4.37;;;3.00;;
21677;SDS011;11000;50.360;7.582;2023-04-24T14:22:16;6.67;;;3.07;;
21677;SDS011;11000;50.360;7.582;2023-04-24T14:24:36;5.37;;;2.93;;